createdAt,value
2018-09-21T00:01:50.014Z,17.45
2018-09-21T00:04:18.414Z,17.44
2018-09-21T00:06:46.789Z,17.44
2018-09-21T00:09:15.206Z,17.34
2018-09-21T00:11:43.578Z,17.42
2018-09-21T00:14:11.961Z,17.42
2018-09-21T00:16:40.360Z,17.41
2018-09-21T00:19:08.745Z,17.40
2018-09-21T00:21:37.147Z,17.40
2018-09-21T00:24:05.530Z,17.41
2018-09-21T00:26:33.950Z,17.40
2018-09-21T00:29:02.342Z,17.40
2018-09-21T00:31:30.744Z,17.40
2018-09-21T00:33:59.130Z,17.38
2018-09-21T00:36:27.538Z,17.37
2018-09-21T00:38:55.906Z,17.36
2018-09-21T00:41:24.318Z,17.36
2018-09-21T00:43:52.698Z,17.34
2018-09-21T00:46:21.091Z,17.32
2018-09-21T00:48:49.474Z,17.31
2018-09-21T00:51:17.878Z,17.29
2018-09-21T00:53:46.250Z,17.28
2018-09-21T00:56:14.646Z,17.28
2018-09-21T00:58:43.030Z,17.26
2018-09-21T01:01:11.426Z,17.27
2018-09-21T01:03:39.801Z,17.26
2018-09-21T01:06:08.206Z,17.24
2018-09-21T01:08:36.581Z,17.23
2018-09-21T01:11:05.078Z,17.23
2018-09-21T01:13:33.535Z,17.24
2018-09-21T01:16:01.934Z,17.23
2018-09-21T01:18:30.306Z,17.24
2018-09-21T01:20:58.710Z,17.27
2018-09-21T01:23:27.083Z,17.29
2018-09-21T01:25:55.671Z,17.33
2018-09-21T01:28:24.046Z,17.38
2018-09-21T01:30:52.442Z,17.40
2018-09-21T01:33:20.818Z,17.45
2018-09-21T01:35:49.300Z,17.48
2018-09-21T01:38:17.679Z,17.51
2018-09-21T01:40:46.074Z,17.56
2018-09-21T01:43:14.450Z,17.57
2018-09-21T01:45:42.856Z,17.60
2018-09-21T01:48:11.226Z,17.62
2018-09-21T01:50:39.627Z,17.66
2018-09-21T01:53:08.001Z,17.69
2018-09-21T01:55:36.390Z,17.73
2018-09-21T01:58:04.763Z,17.76
2018-09-21T02:00:33.195Z,17.80
2018-09-21T02:03:01.579Z,17.84
2018-09-21T02:05:29.966Z,17.87
2018-09-21T02:07:58.367Z,17.90
2018-09-21T02:10:26.743Z,17.92
2018-09-21T02:12:55.151Z,17.96
2018-09-21T02:15:23.532Z,17.99
2018-09-21T02:17:51.998Z,18.03
2018-09-21T02:20:20.365Z,18.05
2018-09-21T02:22:48.803Z,18.09
2018-09-21T02:25:17.198Z,18.12
2018-09-21T02:27:45.594Z,18.15
2018-09-21T02:30:14.118Z,18.16
2018-09-21T02:32:42.523Z,18.19
2018-09-21T02:35:11.078Z,18.21
2018-09-21T02:37:39.475Z,18.24
2018-09-21T02:40:08.250Z,18.26
2018-09-21T02:42:36.655Z,18.28
2018-09-21T02:45:05.251Z,18.30
2018-09-21T02:47:33.655Z,18.32
2018-09-21T02:50:02.031Z,18.35
2018-09-21T02:52:30.442Z,18.39
2018-09-21T02:54:58.821Z,18.39
2018-09-21T02:57:27.224Z,18.40
2018-09-21T02:59:55.615Z,18.42
2018-09-21T03:02:24.009Z,18.43
2018-09-21T03:04:55.014Z,18.44
2018-09-21T03:07:24.333Z,18.47
2018-09-21T03:09:52.730Z,18.48
2018-09-21T03:12:21.136Z,18.51
2018-09-21T03:14:49.507Z,18.54
2018-09-21T03:17:17.906Z,18.57
2018-09-21T03:19:46.295Z,18.62
2018-09-21T03:22:14.693Z,18.66
2018-09-21T03:24:43.094Z,18.69
2018-09-21T03:27:11.482Z,18.73
2018-09-21T03:29:40.036Z,18.78
2018-09-21T03:32:08.430Z,18.82
2018-09-21T03:34:36.801Z,18.87
2018-09-21T03:37:05.202Z,18.89
2018-09-21T03:39:33.586Z,18.91
2018-09-21T03:42:01.999Z,18.93
2018-09-21T03:44:30.373Z,18.95
2018-09-21T03:46:58.779Z,18.97
2018-09-21T03:49:27.771Z,18.99
2018-09-21T03:51:56.165Z,19.00
2018-09-21T03:54:24.556Z,19.02
2018-09-21T03:56:53.213Z,19.03
2018-09-21T03:59:21.588Z,19.06
2018-09-21T04:01:49.986Z,19.07
2018-09-21T04:04:18.379Z,19.09
2018-09-21T04:06:47.055Z,19.10
2018-09-21T04:09:15.444Z,19.13
2018-09-21T04:11:43.825Z,19.14
2018-09-21T04:14:12.219Z,19.15
2018-09-21T04:16:40.598Z,19.15
2018-09-21T04:19:08.995Z,19.16
2018-09-21T04:21:37.381Z,19.16
2018-09-21T04:24:05.789Z,19.14
2018-09-21T04:26:34.183Z,19.13
2018-09-21T04:29:02.586Z,19.11
2018-09-21T04:31:31.070Z,19.11
2018-09-21T04:33:59.544Z,19.10
2018-09-21T04:36:27.902Z,19.10
2018-09-21T04:38:56.305Z,19.08
2018-09-21T04:41:24.678Z,19.08
2018-09-21T04:43:53.077Z,19.06
2018-09-21T04:46:21.475Z,19.05
2018-09-21T04:48:49.879Z,19.02
2018-09-21T04:51:18.251Z,19.02
2018-09-21T04:53:46.655Z,18.99
2018-09-21T04:56:15.027Z,18.99
2018-09-21T04:58:43.421Z,18.98
2018-09-21T05:01:11.803Z,18.98
2018-09-21T05:03:40.212Z,18.98
2018-09-21T05:06:08.626Z,19.00
2018-09-21T05:08:37.033Z,18.99
2018-09-21T05:11:05.414Z,19.03
2018-09-21T05:13:33.814Z,19.04
2018-09-21T05:16:02.210Z,19.07
2018-09-21T05:18:30.616Z,19.09
2018-09-21T05:20:58.991Z,19.12
2018-09-21T05:23:27.386Z,19.17
2018-09-21T05:25:55.787Z,19.20
2018-09-21T05:28:24.188Z,19.25
2018-09-21T05:30:52.563Z,19.29
2018-09-21T05:33:20.954Z,19.33
2018-09-21T05:35:49.327Z,19.37
2018-09-21T05:38:17.723Z,19.42
2018-09-21T05:40:46.098Z,19.46
2018-09-21T05:43:14.549Z,19.49
2018-09-21T05:45:43.044Z,19.54
2018-09-21T05:48:11.660Z,19.57
2018-09-21T05:50:40.031Z,19.60
2018-09-21T05:53:09.139Z,19.65
2018-09-21T05:55:37.679Z,19.69
2018-09-21T05:58:06.120Z,19.76
2018-09-21T06:00:34.495Z,19.79
2018-09-21T06:03:02.891Z,19.84
2018-09-21T06:05:31.286Z,19.89
2018-09-21T06:07:59.751Z,19.93
2018-09-21T06:10:28.161Z,19.98
2018-09-21T06:12:56.638Z,20.00
2018-09-21T06:15:25.042Z,20.05
2018-09-21T06:17:53.454Z,20.08
2018-09-21T06:20:21.850Z,20.13
2018-09-21T06:22:50.247Z,20.17
2018-09-21T06:25:18.674Z,20.23
2018-09-21T06:27:47.050Z,20.29
2018-09-21T06:30:15.452Z,20.36
2018-09-21T06:32:43.878Z,20.43
2018-09-21T06:35:12.274Z,20.50
2018-09-21T06:37:40.760Z,20.60
2018-09-21T06:40:09.220Z,20.68
2018-09-21T06:42:37.591Z,20.78
2018-09-21T06:45:06.142Z,20.84
2018-09-21T06:47:34.529Z,20.92
2018-09-21T06:50:02.973Z,20.98
2018-09-21T06:52:31.356Z,21.06
2018-09-21T06:54:59.742Z,21.13
2018-09-21T06:57:28.114Z,21.25
2018-09-21T06:59:56.664Z,21.33
2018-09-21T07:02:25.034Z,21.50
2018-09-21T07:04:53.525Z,21.61
2018-09-21T07:07:21.899Z,21.76
2018-09-21T07:09:50.314Z,21.90
2018-09-21T07:12:18.694Z,22.01
2018-09-21T07:14:47.085Z,22.12
2018-09-21T07:17:15.462Z,22.23
2018-09-21T07:19:43.866Z,22.33
2018-09-21T07:22:12.252Z,22.43
2018-09-21T07:24:40.826Z,22.53
2018-09-21T07:27:09.197Z,22.61
2018-09-21T07:29:37.598Z,22.69
2018-09-21T07:32:05.972Z,22.73
2018-09-21T07:34:34.377Z,22.76
2018-09-21T07:37:02.749Z,22.77
2018-09-21T07:39:31.289Z,22.75
2018-09-21T07:41:59.663Z,22.73
2018-09-21T07:44:28.066Z,22.69
2018-09-21T07:46:56.827Z,22.68
2018-09-21T07:49:25.277Z,22.64
2018-09-21T07:51:53.774Z,22.63
2018-09-21T07:54:22.214Z,22.62
2018-09-21T07:56:50.606Z,22.60
2018-09-21T07:59:18.999Z,22.64
2018-09-21T08:01:47.378Z,22.70
2018-09-21T08:04:15.747Z,22.75
2018-09-21T08:06:44.146Z,22.83
2018-09-21T08:09:12.523Z,22.89
2018-09-21T08:11:40.918Z,22.91
2018-09-21T08:14:09.303Z,22.93
2018-09-21T08:16:38.523Z,22.95
2018-09-21T08:19:07.399Z,22.99
2018-09-21T08:21:35.790Z,23.08
2018-09-21T08:24:04.554Z,23.16
2018-09-21T08:26:33.290Z,23.26
2018-09-21T08:29:01.658Z,23.37
2018-09-21T08:31:30.091Z,23.47
2018-09-21T08:33:58.461Z,23.57
2018-09-21T08:36:26.854Z,23.69
2018-09-21T08:38:55.222Z,23.80
2018-09-21T08:41:23.630Z,23.92
2018-09-21T08:43:52.002Z,24.06
2018-09-21T08:46:20.403Z,24.21
2018-09-21T08:48:50.511Z,24.35
2018-09-21T08:51:18.911Z,24.48
2018-09-21T08:53:47.299Z,24.62
2018-09-21T08:56:15.703Z,24.74
2018-09-21T08:58:44.082Z,24.86
2018-09-21T09:01:12.478Z,24.99
2018-09-21T09:03:40.853Z,25.11
2018-09-21T09:06:09.243Z,25.21
2018-09-21T09:08:37.627Z,25.34
2018-09-21T09:11:06.145Z,25.47
2018-09-21T09:13:34.528Z,25.57
2018-09-21T09:16:02.935Z,25.67
2018-09-21T09:18:31.315Z,25.77
2018-09-21T09:20:59.719Z,25.85
2018-09-21T09:23:28.196Z,25.95
2018-09-21T09:25:56.623Z,26.06
2018-09-21T09:28:25.001Z,26.18
2018-09-21T09:30:53.394Z,26.26
2018-09-21T09:33:21.771Z,26.37
2018-09-21T09:35:50.166Z,26.45
2018-09-21T09:38:18.530Z,26.56
2018-09-21T09:40:46.931Z,26.64
2018-09-21T09:43:15.323Z,26.76
2018-09-21T09:45:43.731Z,26.89
2018-09-21T09:48:12.110Z,27.03
2018-09-21T09:50:40.522Z,27.18
2018-09-21T09:53:08.902Z,27.31
2018-09-21T09:55:37.311Z,27.45
2018-09-21T09:58:05.715Z,27.55
2018-09-21T10:00:36.203Z,27.63
2018-09-21T10:03:04.591Z,27.71
2018-09-21T10:05:32.961Z,27.77
2018-09-21T10:08:01.354Z,27.81
2018-09-21T10:10:29.806Z,27.85
2018-09-21T10:12:58.171Z,27.88
2018-09-21T10:15:26.552Z,27.97
2018-09-21T10:17:54.947Z,28.02
2018-09-21T10:20:23.344Z,28.13
2018-09-21T10:22:51.734Z,28.25
2018-09-21T10:25:20.122Z,28.38
2018-09-21T10:27:48.622Z,28.52
2018-09-21T10:30:16.923Z,28.64
2018-09-21T10:32:45.322Z,28.74
2018-09-21T10:35:13.785Z,28.85
2018-09-21T10:37:42.153Z,28.96
2018-09-21T10:40:10.573Z,29.07
2018-09-21T10:42:39.030Z,29.12
2018-09-21T10:45:07.544Z,29.13
2018-09-21T10:47:35.951Z,29.13
2018-09-21T10:50:04.337Z,29.13
2018-09-21T10:52:32.815Z,29.13
2018-09-21T10:55:01.183Z,29.14
2018-09-21T10:57:29.591Z,29.19
2018-09-21T10:59:57.971Z,29.25
2018-09-21T11:02:26.375Z,29.35
2018-09-21T11:04:54.934Z,29.43
2018-09-21T11:07:23.335Z,29.47
2018-09-21T11:09:51.718Z,29.50
2018-09-21T11:12:20.127Z,29.51
2018-09-21T11:14:48.503Z,29.51
2018-09-21T11:17:16.894Z,29.49
2018-09-21T11:19:45.277Z,29.48
2018-09-21T11:22:13.690Z,29.50
2018-09-21T11:24:42.091Z,29.49
2018-09-21T11:27:10.583Z,29.48
2018-09-21T11:29:38.966Z,29.44
2018-09-21T11:32:07.467Z,29.40
2018-09-21T11:34:35.850Z,29.40
2018-09-21T11:37:04.249Z,29.43
2018-09-21T11:39:32.636Z,29.48
2018-09-21T11:42:01.030Z,29.54
2018-09-21T11:44:29.504Z,29.55
2018-09-21T11:46:58.014Z,29.61
2018-09-21T11:49:26.311Z,29.61
2018-09-21T11:51:54.710Z,29.63
2018-09-21T11:54:23.086Z,29.61
2018-09-21T11:56:51.486Z,29.60
2018-09-21T11:59:19.881Z,29.61
2018-09-21T12:01:48.295Z,29.60
2018-09-21T12:04:16.684Z,29.61
2018-09-21T12:06:45.062Z,29.64
2018-09-21T12:09:13.471Z,29.67
2018-09-21T12:11:41.854Z,29.67
2018-09-21T12:14:10.259Z,29.67
2018-09-21T12:16:38.845Z,29.66
2018-09-21T12:19:07.276Z,29.65
2018-09-21T12:21:35.646Z,29.64
2018-09-21T12:24:04.059Z,29.63
2018-09-21T12:26:32.567Z,29.64
2018-09-21T12:29:00.966Z,29.62
2018-09-21T12:31:29.359Z,29.61
2018-09-21T12:33:57.758Z,29.60
2018-09-21T12:36:26.167Z,29.58
2018-09-21T12:38:54.707Z,29.57
2018-09-21T12:41:23.122Z,29.54
2018-09-21T12:43:51.528Z,29.52
2018-09-21T12:46:25.232Z,29.49
2018-09-21T12:48:55.956Z,29.45
2018-09-21T12:51:24.683Z,29.44
2018-09-21T12:53:53.274Z,29.43
2018-09-21T12:56:21.646Z,29.42
2018-09-21T12:58:50.171Z,29.41
2018-09-21T13:01:18.470Z,29.40
2018-09-21T13:03:47.003Z,29.41
2018-09-21T13:06:15.400Z,29.42
2018-09-21T13:08:43.806Z,29.40
2018-09-21T13:11:12.204Z,29.37
2018-09-21T13:13:40.622Z,29.33
2018-09-21T13:16:09.006Z,29.27
2018-09-21T13:18:37.483Z,29.21
2018-09-21T13:21:05.876Z,29.16
2018-09-21T13:23:34.279Z,29.13
2018-09-21T13:26:02.704Z,29.09
2018-09-21T13:28:31.095Z,29.05
2018-09-21T13:30:59.542Z,29.03
2018-09-21T13:33:27.951Z,29.02
2018-09-21T13:35:56.322Z,28.99
2018-09-21T13:38:24.927Z,28.93
2018-09-21T13:40:53.295Z,28.86
2018-09-21T13:43:21.672Z,28.79
2018-09-21T13:45:50.066Z,28.70
2018-09-21T13:48:18.442Z,28.62
2018-09-21T13:50:46.831Z,28.53
2018-09-21T13:53:15.204Z,28.43
2018-09-21T13:55:43.599Z,28.34
2018-09-21T13:58:11.966Z,28.22
2018-09-21T14:00:40.359Z,28.12
2018-09-21T14:03:08.751Z,27.67
2018-09-21T14:05:37.238Z,26.89
2018-09-21T14:08:05.690Z,25.82
2018-09-21T14:10:34.097Z,24.74
2018-09-21T14:13:02.492Z,23.70
2018-09-21T14:15:30.891Z,22.76
2018-09-21T14:17:59.262Z,21.87
2018-09-21T14:20:27.672Z,21.04
2018-09-21T14:22:56.042Z,20.26
2018-09-21T14:25:24.451Z,19.54
2018-09-21T14:27:52.850Z,18.94
2018-09-21T14:30:21.259Z,18.44
2018-09-21T14:32:49.628Z,18.07
2018-09-21T14:35:18.066Z,17.81
2018-09-21T14:37:46.443Z,17.61
2018-09-21T14:40:14.845Z,17.45
2018-09-21T14:42:43.228Z,17.30
2018-09-21T14:45:11.782Z,17.20
2018-09-21T14:47:40.154Z,17.15
2018-09-21T14:50:08.847Z,17.07
2018-09-21T14:52:37.398Z,17.02
2018-09-21T14:55:06.762Z,17.00
2018-09-21T14:57:35.138Z,16.93
2018-09-21T15:00:03.542Z,16.89
2018-09-21T15:02:31.923Z,16.85
2018-09-21T15:05:00.318Z,16.81
2018-09-21T15:07:28.692Z,16.77
2018-09-21T15:09:57.102Z,16.75
2018-09-21T15:12:25.490Z,16.71
2018-09-21T15:14:53.931Z,16.66
2018-09-21T15:17:22.295Z,16.61
2018-09-21T15:19:50.697Z,16.59
2018-09-21T15:22:19.103Z,16.55
2018-09-21T15:24:47.559Z,16.54
2018-09-21T15:27:16.255Z,16.51
2018-09-21T15:29:44.762Z,16.49
2018-09-21T15:32:13.731Z,16.48
2018-09-21T15:34:42.469Z,16.45
2018-09-21T15:37:11.007Z,16.45
2018-09-21T15:39:39.576Z,16.44
2018-09-21T15:42:08.185Z,16.45
2018-09-21T15:44:37.866Z,16.41
2018-09-21T15:47:06.454Z,16.40
2018-09-21T15:49:35.016Z,16.39
2018-09-21T15:52:03.881Z,16.41
2018-09-21T15:54:32.399Z,16.45
2018-09-21T15:57:00.847Z,16.47
2018-09-21T15:59:29.569Z,16.46
2018-09-21T16:01:57.973Z,16.47
2018-09-21T16:04:26.558Z,16.45
2018-09-21T16:06:54.979Z,16.40
2018-09-21T16:09:23.385Z,16.37
2018-09-21T16:11:51.778Z,16.34
2018-09-21T16:14:20.175Z,16.31
2018-09-21T16:16:48.596Z,16.27
2018-09-21T16:19:16.975Z,16.26
2018-09-21T16:21:45.371Z,16.23
2018-09-21T16:24:13.743Z,16.19
2018-09-21T16:26:43.622Z,16.17
2018-09-21T16:29:12.259Z,16.15
2018-09-21T16:31:41.023Z,16.14
2018-09-21T16:34:09.527Z,16.12
2018-09-21T16:36:37.946Z,16.09
2018-09-21T16:39:08.598Z,16.05
2018-09-21T16:41:37.057Z,16.04
2018-09-21T16:44:05.639Z,16.02
2018-09-21T16:46:34.062Z,16.02
2018-09-21T16:49:02.480Z,16.03
2018-09-21T16:51:30.918Z,16.02
2018-09-21T16:53:59.310Z,15.99
2018-09-21T16:56:27.711Z,15.99
2018-09-21T16:58:56.191Z,15.98
2018-09-21T17:01:24.519Z,15.96
2018-09-21T17:03:52.903Z,15.92
2018-09-21T17:06:21.390Z,15.89
2018-09-21T17:08:49.784Z,15.87
2018-09-21T17:11:19.125Z,15.83
2018-09-21T17:13:47.571Z,15.81
2018-09-21T17:16:15.977Z,15.81
2018-09-21T17:18:44.362Z,15.76
2018-09-21T17:21:12.925Z,15.75
2018-09-21T17:23:41.245Z,15.75
2018-09-21T17:26:09.688Z,15.76
2018-09-21T17:28:38.074Z,15.75
2018-09-21T17:31:06.655Z,15.72
2018-09-21T17:33:35.027Z,15.69
2018-09-21T17:36:03.434Z,15.64
2018-09-21T17:38:31.806Z,15.61
2018-09-21T17:41:00.208Z,15.56
2018-09-21T17:43:28.606Z,15.52
2018-09-21T17:45:57.002Z,15.48
2018-09-21T17:48:25.362Z,15.46
2018-09-21T17:50:53.836Z,15.44
2018-09-21T17:53:22.332Z,15.44
2018-09-21T17:55:50.991Z,15.44
2018-09-21T17:58:19.391Z,15.41
2018-09-21T18:00:47.803Z,15.39
2018-09-21T18:03:16.218Z,15.34
2018-09-21T18:05:44.594Z,15.32
2018-09-21T18:08:13.000Z,15.30
2018-09-21T18:10:41.384Z,15.26
2018-09-21T18:13:09.937Z,15.23
2018-09-21T18:15:38.308Z,15.21
2018-09-21T18:18:06.707Z,15.17
2018-09-21T18:20:35.083Z,15.15
2018-09-21T18:23:03.474Z,15.15
2018-09-21T18:25:31.930Z,15.15
2018-09-21T18:28:00.335Z,15.14
2018-09-21T18:30:28.897Z,15.13
2018-09-21T18:32:57.298Z,15.11
2018-09-21T18:35:25.674Z,15.10
2018-09-21T18:37:54.064Z,15.10
2018-09-21T18:40:22.710Z,15.09
2018-09-21T18:42:51.238Z,15.08
2018-09-21T18:45:19.615Z,15.06
2018-09-21T18:47:48.015Z,15.04
2018-09-21T18:50:16.457Z,15.04
2018-09-21T18:52:44.814Z,15.01
2018-09-21T18:55:13.203Z,14.99
2018-09-21T18:57:41.603Z,14.99
2018-09-21T19:00:09.982Z,14.97
2018-09-21T19:02:38.383Z,14.95
2018-09-21T19:05:06.799Z,14.92
2018-09-21T19:07:35.195Z,14.90
2018-09-21T19:10:03.570Z,14.88
2018-09-21T19:12:31.967Z,14.87
2018-09-21T19:15:00.646Z,14.84
2018-09-21T19:17:29.755Z,14.83
2018-09-21T19:19:58.126Z,14.81
2018-09-21T19:22:26.531Z,14.82
2018-09-21T19:24:55.015Z,14.81
2018-09-21T19:27:24.079Z,14.79
2018-09-21T19:29:52.457Z,14.78
2018-09-21T19:32:20.927Z,14.78
2018-09-21T19:34:49.317Z,14.78
2018-09-21T19:37:17.727Z,14.77
2018-09-21T19:39:46.200Z,14.77
2018-09-21T19:42:14.570Z,14.75
2018-09-21T19:44:42.975Z,14.75
2018-09-21T19:47:11.562Z,14.75
2018-09-21T19:49:40.008Z,14.72
2018-09-21T19:52:08.403Z,14.71
2018-09-21T19:54:36.978Z,14.70
2018-09-21T19:57:05.386Z,14.67
2018-09-21T19:59:34.730Z,14.66
2018-09-21T20:02:03.167Z,14.64
2018-09-21T20:04:31.584Z,14.61
2018-09-21T20:07:00.018Z,14.57
2018-09-21T20:09:28.417Z,14.53
2018-09-21T20:11:56.819Z,14.48
2018-09-21T20:14:25.218Z,14.46
2018-09-21T20:16:53.596Z,14.42
2018-09-21T20:19:22.002Z,14.40
2018-09-21T20:21:50.374Z,14.41
2018-09-21T20:24:18.793Z,14.39
2018-09-21T20:26:47.192Z,14.37
2018-09-21T20:29:15.594Z,14.34
2018-09-21T20:31:49.927Z,14.32
2018-09-21T20:34:18.523Z,14.29
2018-09-21T20:36:46.938Z,14.27
2018-09-21T20:39:15.346Z,14.25
2018-09-21T20:41:43.866Z,14.21
2018-09-21T20:44:12.274Z,14.21
2018-09-21T20:46:40.646Z,14.18
2018-09-21T20:49:09.151Z,14.15
2018-09-21T20:51:37.551Z,14.09
2018-09-21T20:54:06.203Z,14.05
2018-09-21T20:56:34.573Z,14.03
2018-09-21T20:59:02.964Z,13.99
2018-09-21T21:01:31.374Z,13.96
2018-09-21T21:03:59.768Z,13.91
2018-09-21T21:06:28.146Z,13.88
2018-09-21T21:08:56.548Z,13.85
2018-09-21T21:11:24.918Z,13.82
2018-09-21T21:13:53.320Z,13.77
2018-09-21T21:16:21.692Z,13.73
2018-09-21T21:18:50.091Z,13.70
2018-09-21T21:21:18.466Z,13.68
2018-09-21T21:23:46.863Z,13.65
2018-09-21T21:26:15.308Z,13.61
2018-09-21T21:28:43.703Z,13.58
2018-09-21T21:31:12.091Z,13.56
2018-09-21T21:33:40.510Z,13.54
2018-09-21T21:36:09.582Z,13.51
2018-09-21T21:38:38.753Z,13.49
2018-09-21T21:41:07.174Z,13.48
2018-09-21T21:43:35.817Z,13.45
2018-09-21T21:46:04.498Z,13.44
2018-09-21T21:48:32.899Z,13.41
2018-09-21T21:51:01.322Z,13.40
2018-09-21T21:53:29.714Z,13.37
2018-09-21T21:55:58.404Z,13.35
2018-09-21T21:58:27.011Z,13.32
2018-09-21T22:01:00.946Z,13.30
2018-09-21T22:03:29.342Z,13.27
2018-09-21T22:05:57.764Z,13.24
2018-09-21T22:08:26.162Z,13.21
2018-09-21T22:10:54.597Z,13.18
2018-09-21T22:13:28.329Z,13.14
2018-09-21T22:15:56.762Z,13.13
2018-09-21T22:18:25.412Z,13.12
2018-09-21T22:20:53.839Z,13.14
2018-09-21T22:23:22.246Z,13.13
2018-09-21T22:25:50.695Z,13.15
2018-09-21T22:28:19.089Z,13.14
2018-09-21T22:30:47.530Z,13.15
2018-09-21T22:33:15.926Z,13.10
2018-09-21T22:35:44.383Z,13.11
2018-09-21T22:38:12.787Z,13.09
2018-09-21T22:40:41.209Z,13.05
2018-09-21T22:43:09.597Z,13.02
2018-09-21T22:45:38.009Z,12.97
2018-09-21T22:48:06.430Z,12.94
2018-09-21T22:50:34.902Z,12.90
2018-09-21T22:53:03.299Z,12.86
2018-09-21T22:55:31.718Z,12.83
2018-09-21T22:58:00.115Z,12.80
2018-09-21T23:00:28.538Z,12.77
2018-09-21T23:02:56.941Z,12.73
2018-09-21T23:05:25.367Z,12.70
2018-09-21T23:07:53.767Z,12.68
2018-09-21T23:10:22.185Z,12.65
2018-09-21T23:12:50.588Z,12.63
2018-09-21T23:15:19.006Z,12.62
2018-09-21T23:17:47.761Z,12.61
2018-09-21T23:20:16.187Z,12.58
2018-09-21T23:22:44.831Z,12.56
2018-09-21T23:25:13.438Z,12.56
2018-09-21T23:27:41.837Z,12.56
2018-09-21T23:30:10.277Z,12.54
2018-09-21T23:32:38.669Z,12.53
2018-09-21T23:35:07.106Z,12.53
2018-09-21T23:37:35.503Z,12.51
2018-09-21T23:40:03.910Z,12.47
2018-09-21T23:42:32.340Z,12.46
2018-09-21T23:45:00.734Z,12.43
2018-09-21T23:47:29.151Z,12.40
2018-09-21T23:49:57.547Z,12.37
2018-09-21T23:52:25.980Z,12.35
2018-09-21T23:54:54.378Z,12.31
2018-09-21T23:57:22.794Z,12.30
2018-09-21T23:59:51.346Z,12.27
